<?xml version="1.0" encoding="UTF-8" standalone="no" ?><gpx xmlns="http://www.topografix.com/GPX/1/1" xmlns:gpxx="http://www.garmin.com/xmlschemas/GpxExtensions/v3" xmlns:wptx1="http://www.garmin.com/xmlschemas/WaypointExtension/v1" xmlns:gpxtpx="http://www.garmin.com/xmlschemas/TrackPointExtension/v1" creator="GuideVTT.com" version="1.1" xmlns:xsi="http://www.w3.org/2001/XMLSchema-instance" xsi:schemaLocation="http://www.topografix.com/GPX/1/1 http://www.topografix.com/GPX/1/1/gpx.xsd http://www.garmin.com/xmlschemas/GpxExtensions/v3 http://www8.garmin.com/xmlschemas/GpxExtensionsv3.xsd http://www.garmin.com/xmlschemas/WaypointExtension/v1 http://www8.garmin.com/xmlschemas/WaypointExtensionv1.xsd http://www.garmin.com/xmlschemas/TrackPointExtension/v1 http://www.garmin.com/xmlschemas/TrackPointExtensionv1.xsd">
<metadata><link href="http://www.garmin.com"><text>Garmin International</text></link><time>2013-06-22T15:13:50Z</time></metadata>
<trk><name>posat.gpx</name><extensions><gpxx:TrackExtension><gpxx:DisplayColor>Cyan</gpxx:DisplayColor></gpxx:TrackExtension></extensions><trkseg>
<trkpt lat="46.73468792" lon="7.05408700"><ele>657.015015</ele><time>2009-05-09T11:10:04Z</time></trkpt>
<trkpt lat="46.73464794" lon="7.05373295"><ele>655.841003</ele><time>2009-05-09T11:10:09Z</time></trkpt>
<trkpt lat="46.73476595" lon="7.05350295"><ele>654.031982</ele><time>2009-05-09T11:10:13Z</time></trkpt>
<trkpt lat="46.73496092" lon="7.05308896"><ele>651.885986</ele><time>2009-05-09T11:10:19Z</time></trkpt>
<trkpt lat="46.73517197" lon="7.05287497"><ele>648.674011</ele><time>2009-05-09T11:10:27Z</time></trkpt>
<trkpt lat="46.73525093" lon="7.05287296"><ele>647.354004</ele><time>2009-05-09T11:10:29Z</time></trkpt>
<trkpt lat="46.73524699" lon="7.05267096"><ele>643.101013</ele><time>2009-05-09T11:10:35Z</time></trkpt>
<trkpt lat="46.73499193" lon="7.05235295"><ele>638.392029</ele><time>2009-05-09T11:10:43Z</time></trkpt>
<trkpt lat="46.73484894" lon="7.05175993"><ele>634.875</ele><time>2009-05-09T11:10:54Z</time></trkpt>
<trkpt lat="46.73482496" lon="7.05171492"><ele>633.838989</ele><time>2009-05-09T11:10:56Z</time></trkpt>
<trkpt lat="46.73479898" lon="7.05161995"><ele>632.723022</ele><time>2009-05-09T11:11:08Z</time></trkpt>
<trkpt lat="46.73479496" lon="7.05158492"><ele>631.877991</ele><time>2009-05-09T11:11:15Z</time></trkpt>
<trkpt lat="46.73479194" lon="7.05157293"><ele>631.513</ele><time>2009-05-09T11:11:16Z</time></trkpt>
<trkpt lat="46.73481692" lon="7.05149096"><ele>629.645996</ele><time>2009-05-09T11:11:20Z</time></trkpt>
<trkpt lat="46.73484500" lon="7.05141594"><ele>628.940979</ele><time>2009-05-09T11:11:23Z</time></trkpt>
<trkpt lat="46.73481197" lon="7.05108594"><ele>628.77301</ele><time>2009-05-09T11:11:33Z</time></trkpt>
<trkpt lat="46.73477098" lon="7.05092493"><ele>628.244019</ele><time>2009-05-09T11:11:39Z</time></trkpt>
<trkpt lat="46.73479797" lon="7.05083398"><ele>627.002014</ele><time>2009-05-09T11:11:42Z</time></trkpt>
<trkpt lat="46.73480099" lon="7.05081797"><ele>627.005981</ele><time>2009-05-09T11:11:43Z</time></trkpt>
<trkpt lat="46.73491498" lon="7.05075494"><ele>622.638</ele><time>2009-05-09T11:11:58Z</time></trkpt>
<trkpt lat="46.73492898" lon="7.05074899"><ele>621.89502</ele><time>2009-05-09T11:12:00Z</time></trkpt>
<trkpt lat="46.73495497" lon="7.05071395"><ele>619.747009</ele><time>2009-05-09T11:12:04Z</time></trkpt>
<trkpt lat="46.73500693" lon="7.05065696"><ele>619.025024</ele><time>2009-05-09T11:12:12Z</time></trkpt>
<trkpt lat="46.73509293" lon="7.05052293"><ele>619.19397</ele><time>2009-05-09T11:12:23Z</time></trkpt>
<trkpt lat="46.73510492" lon="7.05050197"><ele>619.236023</ele><time>2009-05-09T11:12:25Z</time></trkpt>
<trkpt lat="46.73513493" lon="7.05045696"><ele>619.301025</ele><time>2009-05-09T11:12:38Z</time></trkpt>
<trkpt lat="46.73517994" lon="7.05037692"><ele>619.057983</ele><time>2009-05-09T11:12:45Z</time></trkpt>
<trkpt lat="46.73519695" lon="7.05035596"><ele>619.533997</ele><time>2009-05-09T11:12:49Z</time></trkpt>
<trkpt lat="46.73518899" lon="7.05020400"><ele>622.609985</ele><time>2009-05-09T11:13:03Z</time></trkpt>
<trkpt lat="46.73515496" lon="7.05014298"><ele>623.651001</ele><time>2009-05-09T11:13:11Z</time></trkpt>
<trkpt lat="46.73515496" lon="7.05013292"><ele>623.633972</ele><time>2009-05-09T11:13:15Z</time></trkpt>
<trkpt lat="46.73513694" lon="7.05009998"><ele>623.843994</ele><time>2009-05-09T11:13:18Z</time></trkpt>
<trkpt lat="46.73483896" lon="7.04976495"><ele>623.671021</ele><time>2009-05-09T11:13:32Z</time></trkpt>
<trkpt lat="46.73454199" lon="7.04924896"><ele>624.642029</ele><time>2009-05-09T11:13:50Z</time></trkpt>
<trkpt lat="46.73443596" lon="7.04897295"><ele>628.031006</ele><time>2009-05-09T11:14:03Z</time></trkpt>
<trkpt lat="46.73440897" lon="7.04888100"><ele>629.577026</ele><time>2009-05-09T11:14:08Z</time></trkpt>
<trkpt lat="46.73438793" lon="7.04877597"><ele>631.25</ele><time>2009-05-09T11:14:14Z</time></trkpt>
<trkpt lat="46.73438198" lon="7.04870892"><ele>632.518005</ele><time>2009-05-09T11:14:18Z</time></trkpt>
<trkpt lat="46.73438299" lon="7.04843994"><ele>635.247986</ele><time>2009-05-09T11:14:31Z</time></trkpt>
<trkpt lat="46.73442196" lon="7.04813300"><ele>638.729004</ele><time>2009-05-09T11:14:46Z</time></trkpt>
<trkpt lat="46.73446094" lon="7.04792697"><ele>641.257019</ele><time>2009-05-09T11:14:58Z</time></trkpt>
<trkpt lat="46.73449296" lon="7.04786897"><ele>641.991028</ele><time>2009-05-09T11:15:02Z</time></trkpt>
<trkpt lat="46.73453294" lon="7.04781197"><ele>643.250977</ele><time>2009-05-09T11:15:06Z</time></trkpt>
<trkpt lat="46.73467199" lon="7.04762598"><ele>647.304993</ele><time>2009-05-09T11:15:19Z</time></trkpt>
<trkpt lat="46.73479496" lon="7.04744694"><ele>650.322021</ele><time>2009-05-09T11:15:31Z</time></trkpt>
<trkpt lat="46.73496192" lon="7.04732398"><ele>654.348999</ele><time>2009-05-09T11:15:46Z</time></trkpt>
<trkpt lat="46.73497592" lon="7.04732498"><ele>654.723999</ele><time>2009-05-09T11:15:47Z</time></trkpt>
<trkpt lat="46.73507298" lon="7.04723094"><ele>656.182983</ele><time>2009-05-09T11:15:56Z</time></trkpt>
<trkpt lat="46.73511598" lon="7.04719699"><ele>656.807983</ele><time>2009-05-09T11:16:00Z</time></trkpt>
<trkpt lat="46.73526493" lon="7.04701795"><ele>658.729004</ele><time>2009-05-09T11:16:15Z</time></trkpt>
<trkpt lat="46.73548898" lon="7.04684093"><ele>660.366028</ele><time>2009-05-09T11:16:30Z</time></trkpt>
<trkpt lat="46.73571596" lon="7.04674697"><ele>661.177002</ele><time>2009-05-09T11:16:42Z</time></trkpt>
<trkpt lat="46.73598393" lon="7.04662300"><ele>663.101013</ele><time>2009-05-09T11:16:55Z</time></trkpt>
<trkpt lat="46.73626900" lon="7.04663699"><ele>665.130005</ele><time>2009-05-09T11:17:10Z</time></trkpt>
<trkpt lat="46.73661198" lon="7.04665200"><ele>666.077026</ele><time>2009-05-09T11:17:24Z</time></trkpt>
<trkpt lat="46.73707592" lon="7.04637296"><ele>665.981018</ele><time>2009-05-09T11:17:37Z</time></trkpt>
<trkpt lat="46.73767699" lon="7.04608798"><ele>670.026978</ele><time>2009-05-09T11:17:57Z</time></trkpt>
<trkpt lat="46.73806700" lon="7.04591498"><ele>672.29303</ele><time>2009-05-09T11:18:13Z</time></trkpt>
<trkpt lat="46.73869899" lon="7.04571096"><ele>674.031982</ele><time>2009-05-09T11:18:34Z</time></trkpt>
<trkpt lat="46.73919898" lon="7.04541693"><ele>676.890991</ele><time>2009-05-09T11:18:52Z</time></trkpt>
<trkpt lat="46.73930299" lon="7.04477294"><ele>678.041992</ele><time>2009-05-09T11:19:08Z</time></trkpt>
<trkpt lat="46.73916293" lon="7.04372395"><ele>678.471985</ele><time>2009-05-09T11:19:28Z</time></trkpt>
<trkpt lat="46.73907794" lon="7.04269792"><ele>678.328003</ele><time>2009-05-09T11:19:45Z</time></trkpt>
<trkpt lat="46.73912798" lon="7.04153895"><ele>678.416016</ele><time>2009-05-09T11:20:03Z</time></trkpt>
<trkpt lat="46.73939000" lon="7.04059892"><ele>680.547974</ele><time>2009-05-09T11:20:22Z</time></trkpt>
<trkpt lat="46.73938799" lon="7.04018695"><ele>680.593994</ele><time>2009-05-09T11:20:30Z</time></trkpt>
<trkpt lat="46.73947097" lon="7.03971296"><ele>679.031006</ele><time>2009-05-09T11:20:37Z</time></trkpt>
<trkpt lat="46.73974598" lon="7.03961195"><ele>679.017029</ele><time>2009-05-09T11:20:43Z</time></trkpt>
<trkpt lat="46.73994195" lon="7.03957792"><ele>680.208984</ele><time>2009-05-09T11:20:48Z</time></trkpt>
<trkpt lat="46.74043396" lon="7.03933896"><ele>684.598022</ele><time>2009-05-09T11:21:05Z</time></trkpt>
<trkpt lat="46.74060797" lon="7.03924893"><ele>687.065002</ele><time>2009-05-09T11:21:14Z</time></trkpt>
<trkpt lat="46.74070093" lon="7.03920694"><ele>688.53302</ele><time>2009-05-09T11:21:19Z</time></trkpt>
<trkpt lat="46.74089698" lon="7.03909496"><ele>689.697021</ele><time>2009-05-09T11:21:29Z</time></trkpt>
<trkpt lat="46.74111097" lon="7.03897493"><ele>690.521973</ele><time>2009-05-09T11:21:39Z</time></trkpt>
<trkpt lat="46.74162294" lon="7.03872699"><ele>693.171997</ele><time>2009-05-09T11:22:02Z</time></trkpt>
<trkpt lat="46.74183894" lon="7.03852993"><ele>695.482971</ele><time>2009-05-09T11:22:16Z</time></trkpt>
<trkpt lat="46.74182000" lon="7.03841594"><ele>695.773987</ele><time>2009-05-09T11:22:21Z</time></trkpt>
<trkpt lat="46.74178496" lon="7.03833095"><ele>695.531006</ele><time>2009-05-09T11:22:24Z</time></trkpt>
<trkpt lat="46.74176593" lon="7.03821293"><ele>695.606018</ele><time>2009-05-09T11:22:28Z</time></trkpt>
<trkpt lat="46.74173199" lon="7.03809299"><ele>695.208984</ele><time>2009-05-09T11:22:32Z</time></trkpt>
<trkpt lat="46.74163392" lon="7.03760600"><ele>695.359985</ele><time>2009-05-09T11:22:46Z</time></trkpt>
<trkpt lat="46.74159796" lon="7.03704198"><ele>696.223022</ele><time>2009-05-09T11:23:04Z</time></trkpt>
<trkpt lat="46.74168195" lon="7.03671894"><ele>698.848999</ele><time>2009-05-09T11:23:16Z</time></trkpt>
<trkpt lat="46.74170198" lon="7.03668198"><ele>699.044983</ele><time>2009-05-09T11:23:18Z</time></trkpt>
<trkpt lat="46.74170198" lon="7.03657796"><ele>699.338013</ele><time>2009-05-09T11:23:22Z</time></trkpt>
<trkpt lat="46.74168295" lon="7.03594395"><ele>700.697998</ele><time>2009-05-09T11:23:43Z</time></trkpt>
<trkpt lat="46.74166493" lon="7.03536593"><ele>701.481018</ele><time>2009-05-09T11:24:02Z</time></trkpt>
<trkpt lat="46.74166996" lon="7.03487593"><ele>702.513977</ele><time>2009-05-09T11:24:18Z</time></trkpt>
<trkpt lat="46.74171698" lon="7.03471198"><ele>703.406006</ele><time>2009-05-09T11:24:26Z</time></trkpt>
<trkpt lat="46.74177599" lon="7.03472698"><ele>703.960999</ele><time>2009-05-09T11:24:30Z</time></trkpt>
<trkpt lat="46.74189292" lon="7.03483896"><ele>706.754028</ele><time>2009-05-09T11:24:38Z</time></trkpt>
<trkpt lat="46.74192896" lon="7.03483695"><ele>707.629028</ele><time>2009-05-09T11:24:40Z</time></trkpt>
<trkpt lat="46.74200096" lon="7.03489294"><ele>709.013</ele><time>2009-05-09T11:24:45Z</time></trkpt>
<trkpt lat="46.74207900" lon="7.03500392"><ele>711.179993</ele><time>2009-05-09T11:24:52Z</time></trkpt>
<trkpt lat="46.74212392" lon="7.03510400"><ele>712.393005</ele><time>2009-05-09T11:24:58Z</time></trkpt>
<trkpt lat="46.74231092" lon="7.03541799"><ele>715.138</ele><time>2009-05-09T11:25:18Z</time></trkpt>
<trkpt lat="46.74253095" lon="7.03563298"><ele>718.38501</ele><time>2009-05-09T11:25:38Z</time></trkpt>
<trkpt lat="46.74260194" lon="7.03568897"><ele>719.234985</ele><time>2009-05-09T11:25:44Z</time></trkpt>
<trkpt lat="46.74275500" lon="7.03575997"><ele>721.557007</ele><time>2009-05-09T11:25:57Z</time></trkpt>
<trkpt lat="46.74300696" lon="7.03581998"><ele>723.932007</ele><time>2009-05-09T11:26:16Z</time></trkpt>
<trkpt lat="46.74327199" lon="7.03597094"><ele>726.768982</ele><time>2009-05-09T11:26:36Z</time></trkpt>
<trkpt lat="46.74353594" lon="7.03571093"><ele>727.064026</ele><time>2009-05-09T11:26:51Z</time></trkpt>
<trkpt lat="46.74367793" lon="7.03557297"><ele>726.745972</ele><time>2009-05-09T11:26:55Z</time></trkpt>
<trkpt lat="46.74423893" lon="7.03511992"><ele>724.565002</ele><time>2009-05-09T11:27:06Z</time></trkpt>
<trkpt lat="46.74478694" lon="7.03473595"><ele>724.18103</ele><time>2009-05-09T11:27:17Z</time></trkpt>
<trkpt lat="46.74567198" lon="7.03416598"><ele>725.786987</ele><time>2009-05-09T11:27:37Z</time></trkpt>
<trkpt lat="46.74619200" lon="7.03384898"><ele>726.265991</ele><time>2009-05-09T11:27:53Z</time></trkpt>
<trkpt lat="46.74660095" lon="7.03342192"><ele>722.656982</ele><time>2009-05-09T11:28:02Z</time></trkpt>
<trkpt lat="46.74705793" lon="7.03290492"><ele>717.97998</ele><time>2009-05-09T11:28:09Z</time></trkpt>
<trkpt lat="46.74731299" lon="7.03261793"><ele>715.390991</ele><time>2009-05-09T11:28:13Z</time></trkpt>
<trkpt lat="46.74769898" lon="7.03187596"><ele>709.359009</ele><time>2009-05-09T11:28:20Z</time></trkpt>
<trkpt lat="46.74802093" lon="7.03133499"><ele>705.515015</ele><time>2009-05-09T11:28:25Z</time></trkpt>
<trkpt lat="46.74836098" lon="7.03109594"><ele>703.387024</ele><time>2009-05-09T11:28:29Z</time></trkpt>
<trkpt lat="46.74896993" lon="7.03084993"><ele>702.653015</ele><time>2009-05-09T11:28:37Z</time></trkpt>
<trkpt lat="46.74941895" lon="7.03014099"><ele>699.879028</ele><time>2009-05-09T11:28:48Z</time></trkpt>
<trkpt lat="46.74969094" lon="7.03000797"><ele>698.01001</ele><time>2009-05-09T11:28:56Z</time></trkpt>
<trkpt lat="46.74995698" lon="7.03010897"><ele>697.916992</ele><time>2009-05-09T11:29:02Z</time></trkpt>
<trkpt lat="46.75012093" lon="7.03030000"><ele>698.242981</ele><time>2009-05-09T11:29:07Z</time></trkpt>
<trkpt lat="46.75029192" lon="7.03074792"><ele>698.593018</ele><time>2009-05-09T11:29:15Z</time></trkpt>
<trkpt lat="46.75034892" lon="7.03087499"><ele>698.554016</ele><time>2009-05-09T11:29:18Z</time></trkpt>
<trkpt lat="46.75036199" lon="7.03090894"><ele>698.546997</ele><time>2009-05-09T11:29:19Z</time></trkpt>
<trkpt lat="46.75037499" lon="7.03094792"><ele>698.606018</ele><time>2009-05-09T11:29:20Z</time></trkpt>
<trkpt lat="46.75065394" lon="7.03152996"><ele>701.164001</ele><time>2009-05-09T11:29:35Z</time></trkpt>
<trkpt lat="46.75076298" lon="7.03183598"><ele>702.960022</ele><time>2009-05-09T11:29:43Z</time></trkpt>
<trkpt lat="46.75080397" lon="7.03208098"><ele>703.969971</ele><time>2009-05-09T11:29:49Z</time></trkpt>
<trkpt lat="46.75083599" lon="7.03238298"><ele>704.888</ele><time>2009-05-09T11:29:56Z</time></trkpt>
<trkpt lat="46.75082895" lon="7.03289998"><ele>706.888</ele><time>2009-05-09T11:30:08Z</time></trkpt>
<trkpt lat="46.75095694" lon="7.03365795"><ele>708.945007</ele><time>2009-05-09T11:30:27Z</time></trkpt>
<trkpt lat="46.75102492" lon="7.03420194"><ele>710.096985</ele><time>2009-05-09T11:30:41Z</time></trkpt>
<trkpt lat="46.75106096" lon="7.03426598"><ele>710.578979</ele><time>2009-05-09T11:30:43Z</time></trkpt>
<trkpt lat="46.75119993" lon="7.03413195"><ele>712.755005</ele><time>2009-05-09T11:30:51Z</time></trkpt>
<trkpt lat="46.75127897" lon="7.03364496"><ele>716.770996</ele><time>2009-05-09T11:31:08Z</time></trkpt>
<trkpt lat="46.75153999" lon="7.03346693"><ele>715.335999</ele><time>2009-05-09T11:31:18Z</time></trkpt>
<trkpt lat="46.75172095" lon="7.03362795"><ele>714.106995</ele><time>2009-05-09T11:31:22Z</time></trkpt>
<trkpt lat="46.75203896" lon="7.03414595"><ele>714.703003</ele><time>2009-05-09T11:31:34Z</time></trkpt>
<trkpt lat="46.75231498" lon="7.03441995"><ele>717.336975</ele><time>2009-05-09T11:31:48Z</time></trkpt>
<trkpt lat="46.75256895" lon="7.03444996"><ele>720.552979</ele><time>2009-05-09T11:32:01Z</time></trkpt>
<trkpt lat="46.75291093" lon="7.03445893"><ele>724.169983</ele><time>2009-05-09T11:32:19Z</time></trkpt>
<trkpt lat="46.75326800" lon="7.03463897"><ele>726.809998</ele><time>2009-05-09T11:32:37Z</time></trkpt>
<trkpt lat="46.75361493" lon="7.03489697"><ele>728.882996</ele><time>2009-05-09T11:32:55Z</time></trkpt>
<trkpt lat="46.75374493" lon="7.03502395"><ele>729.13501</ele><time>2009-05-09T11:33:02Z</time></trkpt>
<trkpt lat="46.75383797" lon="7.03500199"><ele>729.836975</ele><time>2009-05-09T11:33:07Z</time></trkpt>
<trkpt lat="46.75385398" lon="7.03498095"><ele>729.927979</ele><time>2009-05-09T11:33:09Z</time></trkpt>
<trkpt lat="46.75387292" lon="7.03496092"><ele>729.960022</ele><time>2009-05-09T11:33:19Z</time></trkpt>
<trkpt lat="46.75403796" lon="7.03486394"><ele>730.69397</ele><time>2009-05-09T11:33:27Z</time></trkpt>
<trkpt lat="46.75437097" lon="7.03460393"><ele>732.388977</ele><time>2009-05-09T11:33:41Z</time></trkpt>
<trkpt lat="46.75485394" lon="7.03420697"><ele>735.590027</ele><time>2009-05-09T11:34:03Z</time></trkpt>
<trkpt lat="46.75526792" lon="7.03405098"><ele>738.124023</ele><time>2009-05-09T11:34:22Z</time></trkpt>
<trkpt lat="46.75559197" lon="7.03464895"><ele>741.336975</ele><time>2009-05-09T11:34:43Z</time></trkpt>
<trkpt lat="46.75595499" lon="7.03535194"><ele>743.007996</ele><time>2009-05-09T11:35:04Z</time></trkpt>
<trkpt lat="46.75621298" lon="7.03584597"><ele>742.163025</ele><time>2009-05-09T11:35:14Z</time></trkpt>
<trkpt lat="46.75627694" lon="7.03596298"><ele>741.666016</ele><time>2009-05-09T11:35:16Z</time></trkpt>
<trkpt lat="46.75644600" lon="7.03628895"><ele>740.825989</ele><time>2009-05-09T11:35:21Z</time></trkpt>
<trkpt lat="46.75668195" lon="7.03647695"><ele>741.664001</ele><time>2009-05-09T11:35:26Z</time></trkpt>
<trkpt lat="46.75721596" lon="7.03660696"><ele>743.619019</ele><time>2009-05-09T11:35:42Z</time></trkpt>
<trkpt lat="46.75739693" lon="7.03660495"><ele>743.505981</ele><time>2009-05-09T11:35:47Z</time></trkpt>
<trkpt lat="46.75782993" lon="7.03641200"><ele>742.028992</ele><time>2009-05-09T11:35:57Z</time></trkpt>
<trkpt lat="46.75817594" lon="7.03655893"><ele>741.458008</ele><time>2009-05-09T11:36:05Z</time></trkpt>
<trkpt lat="46.75864499" lon="7.03740399"><ele>742.47699</ele><time>2009-05-09T11:36:20Z</time></trkpt>
<trkpt lat="46.75917598" lon="7.03868198"><ele>742.578979</ele><time>2009-05-09T11:36:41Z</time></trkpt>
<trkpt lat="46.75966096" lon="7.04006500"><ele>741.971008</ele><time>2009-05-09T11:37:01Z</time></trkpt>
<trkpt lat="46.75990697" lon="7.04032299"><ele>742.236023</ele><time>2009-05-09T11:37:08Z</time></trkpt>
<trkpt lat="46.76001292" lon="7.04043799"><ele>742.400024</ele><time>2009-05-09T11:37:11Z</time></trkpt>
<trkpt lat="46.76040796" lon="7.04116194"><ele>742.09198</ele><time>2009-05-09T11:37:24Z</time></trkpt>
<trkpt lat="46.76054995" lon="7.04207196"><ele>741.78302</ele><time>2009-05-09T11:37:37Z</time></trkpt>
<trkpt lat="46.76066997" lon="7.04284896"><ele>741.862</ele><time>2009-05-09T11:37:48Z</time></trkpt>
<trkpt lat="46.76060393" lon="7.04330795"><ele>742.864014</ele><time>2009-05-09T11:37:55Z</time></trkpt>
<trkpt lat="46.76039396" lon="7.04353997"><ele>743.947021</ele><time>2009-05-09T11:38:03Z</time></trkpt>
<trkpt lat="46.76045498" lon="7.04361297"><ele>743.588013</ele><time>2009-05-09T11:38:07Z</time></trkpt>
<trkpt lat="46.76096493" lon="7.04371498"><ele>744.70697</ele><time>2009-05-09T11:38:20Z</time></trkpt>
<trkpt lat="46.76110500" lon="7.04375597"><ele>744.481018</ele><time>2009-05-09T11:38:24Z</time></trkpt>
<trkpt lat="46.76126199" lon="7.04386896"><ele>744.73999</ele><time>2009-05-09T11:38:29Z</time></trkpt>
<trkpt lat="46.76172894" lon="7.04424798"><ele>746.322998</ele><time>2009-05-09T11:38:43Z</time></trkpt>
<trkpt lat="46.76228399" lon="7.04442593"><ele>745.911987</ele><time>2009-05-09T11:38:59Z</time></trkpt>
<trkpt lat="46.76280099" lon="7.04464395"><ele>745.31897</ele><time>2009-05-09T11:39:13Z</time></trkpt>
<trkpt lat="46.76288296" lon="7.04469893"><ele>745.473999</ele><time>2009-05-09T11:39:15Z</time></trkpt>
<trkpt lat="46.76346794" lon="7.04543595"><ele>744.838989</ele><time>2009-05-09T11:39:32Z</time></trkpt>
<trkpt lat="46.76353499" lon="7.04550292"><ele>744.356995</ele><time>2009-05-09T11:39:34Z</time></trkpt>
<trkpt lat="46.76375393" lon="7.04556897"><ele>743.97998</ele><time>2009-05-09T11:39:40Z</time></trkpt>
<trkpt lat="46.76393699" lon="7.04577995"><ele>743.549011</ele><time>2009-05-09T11:39:47Z</time></trkpt>
<trkpt lat="46.76401293" lon="7.04606694"><ele>742.783997</ele><time>2009-05-09T11:39:52Z</time></trkpt>
<trkpt lat="46.76405895" lon="7.04632695"><ele>742.437012</ele><time>2009-05-09T11:39:56Z</time></trkpt>
<trkpt lat="46.76426992" lon="7.04710999"><ele>740.648987</ele><time>2009-05-09T11:40:08Z</time></trkpt>
<trkpt lat="46.76432599" lon="7.04752992"><ele>739.088989</ele><time>2009-05-09T11:40:13Z</time></trkpt>
<trkpt lat="46.76462699" lon="7.04841094"><ele>737.26001</ele><time>2009-05-09T11:40:23Z</time></trkpt>
<trkpt lat="46.76484299" lon="7.04966999"><ele>733.916016</ele><time>2009-05-09T11:40:37Z</time></trkpt>
<trkpt lat="46.76508095" lon="7.05139993"><ele>731.640991</ele><time>2009-05-09T11:40:58Z</time></trkpt>
<trkpt lat="46.76522294" lon="7.05235898"><ele>729.898987</ele><time>2009-05-09T11:41:09Z</time></trkpt>
<trkpt lat="46.76539896" lon="7.05359892"><ele>727.497009</ele><time>2009-05-09T11:41:23Z</time></trkpt>
<trkpt lat="46.76528195" lon="7.05452596"><ele>725.890015</ele><time>2009-05-09T11:41:33Z</time></trkpt>
<trkpt lat="46.76522395" lon="7.05511093"><ele>725.978027</ele><time>2009-05-09T11:41:40Z</time></trkpt>
<trkpt lat="46.76540298" lon="7.05613394"><ele>726.112</ele><time>2009-05-09T11:41:55Z</time></trkpt>
<trkpt lat="46.76583298" lon="7.05690893"><ele>725.107971</ele><time>2009-05-09T11:42:07Z</time></trkpt>
<trkpt lat="46.76615509" lon="7.05732317"><ele>723.96875</ele><time>1989-12-31T00:00:00Z</time></trkpt>
<trkpt lat="46.76546342" lon="7.05784771"><ele>730.152344</ele><time>1989-12-31T00:00:00Z</time></trkpt>
<trkpt lat="46.76515798" lon="7.05717883"><ele>728.074219</ele><time>1989-12-31T00:00:00Z</time></trkpt>
<trkpt lat="46.76451123" lon="7.05766414"><ele>720.800781</ele><time>1989-12-31T00:00:00Z</time></trkpt>
<trkpt lat="46.76451123" lon="7.05769029"><ele>720.613281</ele><time>1989-12-31T00:00:00Z</time></trkpt>
<trkpt lat="46.76444829" lon="7.05770345"><ele>719.851563</ele><time>1989-12-31T00:00:00Z</time></trkpt>
<trkpt lat="46.76432256" lon="7.05759851"><ele>719.488281</ele><time>1989-12-31T00:00:00Z</time></trkpt>
<trkpt lat="46.76399021" lon="7.05710021"><ele>719.328125</ele><time>1989-12-31T00:00:00Z</time></trkpt>
<trkpt lat="46.76381051" lon="7.05692972"><ele>719.46875</ele><time>1989-12-31T00:00:00Z</time></trkpt>
<trkpt lat="46.76367581" lon="7.05702150"><ele>716.523438</ele><time>1989-12-31T00:00:00Z</time></trkpt>
<trkpt lat="46.76370271" lon="7.05731001"><ele>713.175781</ele><time>1989-12-31T00:00:00Z</time></trkpt>
<trkpt lat="46.76384646" lon="7.05782147"><ele>709.738281</ele><time>1989-12-31T00:00:00Z</time></trkpt>
<trkpt lat="46.76410697" lon="7.05856897"><ele>705.613281</ele><time>1989-12-31T00:00:00Z</time></trkpt>
<trkpt lat="46.76410697" lon="7.05859520"><ele>705.316406</ele><time>1989-12-31T00:00:00Z</time></trkpt>
<trkpt lat="46.76438542" lon="7.05930339"><ele>703.652344</ele><time>1989-12-31T00:00:00Z</time></trkpt>
<trkpt lat="46.76453814" lon="7.05982802"><ele>701.007813</ele><time>1989-12-31T00:00:00Z</time></trkpt>
<trkpt lat="46.76444829" lon="7.05997227"><ele>698.234375</ele><time>1989-12-31T00:00:00Z</time></trkpt>
<trkpt lat="46.76424167" lon="7.06014276"><ele>694.199219</ele><time>1989-12-31T00:00:00Z</time></trkpt>
<trkpt lat="46.76411594" lon="7.06012960"><ele>693.046875</ele><time>1989-12-31T00:00:00Z</time></trkpt>
<trkpt lat="46.76413388" lon="7.06033948"><ele>691.542969</ele><time>1989-12-31T00:00:00Z</time></trkpt>
<trkpt lat="46.76404411" lon="7.06045750"><ele>690.246094</ele><time>1989-12-31T00:00:00Z</time></trkpt>
<trkpt lat="46.76426866" lon="7.06117876"><ele>689.386719</ele><time>1989-12-31T00:00:00Z</time></trkpt>
<trkpt lat="46.76451123" lon="7.06193942"><ele>688.878906</ele><time>1989-12-31T00:00:00Z</time></trkpt>
<trkpt lat="46.76483461" lon="7.06276562"><ele>685.222656</ele><time>1989-12-31T00:00:00Z</time></trkpt>
<trkpt lat="46.76511305" lon="7.06339510"><ele>683.738281</ele><time>1989-12-31T00:00:00Z</time></trkpt>
<trkpt lat="46.76513107" lon="7.06339510"><ele>683.933594</ele><time>1989-12-31T00:00:00Z</time></trkpt>
<trkpt lat="46.76528379" lon="7.06367053"><ele>683.878906</ele><time>1989-12-31T00:00:00Z</time></trkpt>
<trkpt lat="46.76534666" lon="7.06391972"><ele>683.144531</ele><time>1989-12-31T00:00:00Z</time></trkpt>
<trkpt lat="46.76574186" lon="7.06445742"><ele>684.875</ele><time>1989-12-31T00:00:00Z</time></trkpt>
<trkpt lat="46.76540055" lon="7.06508690"><ele>678.140625</ele><time>1989-12-31T00:00:00Z</time></trkpt>
<trkpt lat="46.76558068" lon="7.06542813"><ele>678.355469</ele><time>1989-12-31T00:00:00Z</time></trkpt>
<trkpt lat="46.76586818" lon="7.06612316"><ele>678.789063</ele><time>1989-12-31T00:00:00Z</time></trkpt>
<trkpt lat="46.76617353" lon="7.06687074"><ele>678.527344</ele><time>1989-12-31T00:00:00Z</time></trkpt>
<trkpt lat="46.76644309" lon="7.06759200"><ele>677.101563</ele><time>1989-12-31T00:00:00Z</time></trkpt>
<trkpt lat="46.76655089" lon="7.06810347"><ele>677.277344</ele><time>1989-12-31T00:00:00Z</time></trkpt>
<trkpt lat="46.76673051" lon="7.06862809"><ele>676.035156</ele><time>1989-12-31T00:00:00Z</time></trkpt>
<trkpt lat="46.76693712" lon="7.06896907"><ele>673.570313</ele><time>1989-12-31T00:00:00Z</time></trkpt>
<trkpt lat="46.76718866" lon="7.06954608"><ele>669.679688</ele><time>1989-12-31T00:00:00Z</time></trkpt>
<trkpt lat="46.76740425" lon="7.07004447"><ele>668.332031</ele><time>1989-12-31T00:00:00Z</time></trkpt>
<trkpt lat="46.76767373" lon="7.07084443"><ele>668.558594</ele><time>1989-12-31T00:00:00Z</time></trkpt>
<trkpt lat="46.76779057" lon="7.07178866"><ele>664.734375</ele><time>1989-12-31T00:00:00Z</time></trkpt>
<trkpt lat="46.76779057" lon="7.07180173"><ele>664.617188</ele><time>1989-12-31T00:00:00Z</time></trkpt>
<trkpt lat="46.76783550" lon="7.07239190"><ele>659.554688</ele><time>1989-12-31T00:00:00Z</time></trkpt>
<trkpt lat="46.76783550" lon="7.07241814"><ele>659.492188</ele><time>1989-12-31T00:00:00Z</time></trkpt>
<trkpt lat="46.76787137" lon="7.07312632"><ele>657.394531</ele><time>1989-12-31T00:00:00Z</time></trkpt>
<trkpt lat="46.76791630" lon="7.07391322"><ele>654.621094</ele><time>1989-12-31T00:00:00Z</time></trkpt>
<trkpt lat="46.76791630" lon="7.07392629"><ele>654.574219</ele><time>1989-12-31T00:00:00Z</time></trkpt>
<trkpt lat="46.76797019" lon="7.07424103"><ele>654.074219</ele><time>1989-12-31T00:00:00Z</time></trkpt>
<trkpt lat="46.76822173" lon="7.07470011"><ele>653.992188</ele><time>1989-12-31T00:00:00Z</time></trkpt>
<trkpt lat="46.76832056" lon="7.07489683"><ele>654.210938</ele><time>1989-12-31T00:00:00Z</time></trkpt>
<trkpt lat="46.76844620" lon="7.07523823"><ele>654.328125</ele><time>1989-12-31T00:00:00Z</time></trkpt>
<trkpt lat="46.76850907" lon="7.07599889"><ele>652.929688</ele><time>1989-12-31T00:00:00Z</time></trkpt>
<trkpt lat="46.76885943" lon="7.07717931"><ele>653.878906</ele><time>1989-12-31T00:00:00Z</time></trkpt>
<trkpt lat="46.76928163" lon="7.07834657"><ele>655.917969</ele><time>1989-12-31T00:00:00Z</time></trkpt>
<trkpt lat="46.76928163" lon="7.07835965"><ele>655.917969</ele><time>1989-12-31T00:00:00Z</time></trkpt>
<trkpt lat="46.76956904" lon="7.07952691"><ele>654.972656</ele><time>1989-12-31T00:00:00Z</time></trkpt>
<trkpt lat="46.76991940" lon="7.08060239"><ele>652.652344</ele><time>1989-12-31T00:00:00Z</time></trkpt>
<trkpt lat="46.77006315" lon="7.08094337"><ele>651.964844</ele><time>1989-12-31T00:00:00Z</time></trkpt>
<trkpt lat="46.77031956" lon="7.08143489"><ele>650.402344</ele><time>1989-12-31T00:00:00Z</time></trkpt>
<trkpt lat="46.77036448" lon="7.08176279"><ele>649.054688</ele><time>1989-12-31T00:00:00Z</time></trkpt>
<trkpt lat="46.77030162" lon="7.08256284"><ele>646</ele><time>1989-12-31T00:00:00Z</time></trkpt>
<trkpt lat="46.77052617" lon="7.08311370"><ele>644.261719</ele><time>1989-12-31T00:00:00Z</time></trkpt>
<trkpt lat="46.77052617" lon="7.08315301"><ele>644.132813</ele><time>1989-12-31T00:00:00Z</time></trkpt>
<trkpt lat="46.77102925" lon="7.08413671"><ele>637.886719</ele><time>1989-12-31T00:00:00Z</time></trkpt>
<trkpt lat="46.77137953" lon="7.08491053"><ele>636.886719</ele><time>1989-12-31T00:00:00Z</time></trkpt>
<trkpt lat="46.77164909" lon="7.08506785"><ele>636.886719</ele><time>1989-12-31T00:00:00Z</time></trkpt>
<trkpt lat="46.77214312" lon="7.08519903"><ele>636.246094</ele><time>1989-12-31T00:00:00Z</time></trkpt>
<trkpt lat="46.77276246" lon="7.08537002"><ele>638.425781</ele><time>1989-12-31T00:00:00Z</time></trkpt>
<trkpt lat="46.77327451" lon="7.08543557"><ele>639.234375</ele><time>1989-12-31T00:00:00Z</time></trkpt>
<trkpt lat="46.77402914" lon="7.08530439"><ele>644.222656</ele><time>1989-12-31T00:00:00Z</time></trkpt>
<trkpt lat="46.77402914" lon="7.08527816"><ele>644.25</ele><time>1989-12-31T00:00:00Z</time></trkpt>
<trkpt lat="46.77464001" lon="7.08510767"><ele>646.171875</ele><time>1989-12-31T00:00:00Z</time></trkpt>
<trkpt lat="46.77509808" lon="7.08468799"><ele>647.972656</ele><time>1989-12-31T00:00:00Z</time></trkpt>
<trkpt lat="46.77488250" lon="7.08529131"><ele>646.382813</ele><time>1989-12-31T00:00:00Z</time></trkpt>
<trkpt lat="46.77517897" lon="7.08577663"><ele>645.597656</ele><time>1989-12-31T00:00:00Z</time></trkpt>
<trkpt lat="46.77545741" lon="7.08635372"><ele>644.050781</ele><time>1989-12-31T00:00:00Z</time></trkpt>
<trkpt lat="46.77564592" lon="7.08686099"><ele>589.963989</ele><time>2009-05-09T10:13:29Z</time></trkpt>
<trkpt lat="46.77570694" lon="7.08698295"><ele>589.421021</ele><time>2009-05-09T10:13:31Z</time></trkpt>
<trkpt lat="46.77593392" lon="7.08757295"><ele>586.786987</ele><time>2009-05-09T10:13:38Z</time></trkpt>
<trkpt lat="46.77604297" lon="7.08771695"><ele>585.554016</ele><time>2009-05-09T10:13:41Z</time></trkpt>
<trkpt lat="46.77606292" lon="7.08774998"><ele>585.406982</ele><time>2009-05-09T10:13:42Z</time></trkpt>
<trkpt lat="46.77624799" lon="7.08792692"><ele>583.729004</ele><time>2009-05-09T10:13:51Z</time></trkpt>
<trkpt lat="46.77639593" lon="7.08803094"><ele>583.799988</ele><time>2009-05-09T10:13:56Z</time></trkpt>
<trkpt lat="46.77646399" lon="7.08807696"><ele>583.262024</ele><time>2009-05-09T10:13:58Z</time></trkpt>
<trkpt lat="46.77658997" lon="7.08809992"><ele>583.653992</ele><time>2009-05-09T10:14:01Z</time></trkpt>
<trkpt lat="46.77662895" lon="7.08811794"><ele>583.711975</ele><time>2009-05-09T10:14:02Z</time></trkpt>
<trkpt lat="46.77673800" lon="7.08822096"><ele>583.606018</ele><time>2009-05-09T10:14:05Z</time></trkpt>
<trkpt lat="46.77688393" lon="7.08836094"><ele>582.651001</ele><time>2009-05-09T10:14:10Z</time></trkpt>
<trkpt lat="46.77683598" lon="7.08860795"><ele>582.685974</ele><time>2009-05-09T10:14:16Z</time></trkpt>
<trkpt lat="46.77673699" lon="7.08877693"><ele>582.804993</ele><time>2009-05-09T10:14:19Z</time></trkpt>
<trkpt lat="46.77634497" lon="7.08937992"><ele>581.84198</ele><time>2009-05-09T10:14:30Z</time></trkpt>
<trkpt lat="46.77630298" lon="7.08944195"><ele>581.494019</ele><time>2009-05-09T10:14:31Z</time></trkpt>
<trkpt lat="46.77582798" lon="7.09014997"><ele>580.60199</ele><time>2009-05-09T10:14:44Z</time></trkpt>
<trkpt lat="46.77574198" lon="7.09026195"><ele>580.335022</ele><time>2009-05-09T10:14:47Z</time></trkpt>
<trkpt lat="46.77562396" lon="7.09055297"><ele>578.924988</ele><time>2009-05-09T10:14:52Z</time></trkpt>
<trkpt lat="46.77575497" lon="7.09071793"><ele>578.916016</ele><time>2009-05-09T10:14:56Z</time></trkpt>
<trkpt lat="46.77598296" lon="7.09079596"><ele>578.937988</ele><time>2009-05-09T10:15:00Z</time></trkpt>
<trkpt lat="46.77623592" lon="7.09081792"><ele>579.812012</ele><time>2009-05-09T10:15:05Z</time></trkpt>
<trkpt lat="46.77662099" lon="7.09086796"><ele>580.341003</ele><time>2009-05-09T10:15:13Z</time></trkpt>
<trkpt lat="46.77704897" lon="7.09107793"><ele>580.607971</ele><time>2009-05-09T10:15:23Z</time></trkpt>
<trkpt lat="46.77756093" lon="7.09151396"><ele>578.68103</ele><time>2009-05-09T10:15:36Z</time></trkpt>
<trkpt lat="46.77758398" lon="7.09160096"><ele>577.924988</ele><time>2009-05-09T10:15:44Z</time></trkpt>
<trkpt lat="46.77753998" lon="7.09178695"><ele>574.669006</ele><time>2009-05-09T10:15:57Z</time></trkpt>
<trkpt lat="46.77753093" lon="7.09187597"><ele>572.142029</ele><time>2009-05-09T10:16:04Z</time></trkpt>
<trkpt lat="46.77751492" lon="7.09197999"><ele>568.39502</ele><time>2009-05-09T10:16:16Z</time></trkpt>
<trkpt lat="46.77749095" lon="7.09202693"><ele>567.278015</ele><time>2009-05-09T10:16:27Z</time></trkpt>
<trkpt lat="46.77751299" lon="7.09216992"><ele>566.90802</ele><time>2009-05-09T10:16:34Z</time></trkpt>
<trkpt lat="46.77761399" lon="7.09233899"><ele>567.10498</ele><time>2009-05-09T10:16:40Z</time></trkpt>
<trkpt lat="46.77762992" lon="7.09235500"><ele>567.213013</ele><time>2009-05-09T10:16:42Z</time></trkpt>
<trkpt lat="46.77767099" lon="7.09232692"><ele>569.908997</ele><time>2009-05-09T10:16:52Z</time></trkpt>
<trkpt lat="46.77769798" lon="7.09231292"><ele>570.119019</ele><time>2009-05-09T10:16:56Z</time></trkpt>
<trkpt lat="46.77772597" lon="7.09230898"><ele>570.392029</ele><time>2009-05-09T10:16:59Z</time></trkpt>
<trkpt lat="46.77782597" lon="7.09230395"><ele>571.453003</ele><time>2009-05-09T10:17:07Z</time></trkpt>
<trkpt lat="46.77792496" lon="7.09238199"><ele>572.299011</ele><time>2009-05-09T10:17:19Z</time></trkpt>
<trkpt lat="46.77826594" lon="7.09278792"><ele>570.265015</ele><time>2009-05-09T10:17:31Z</time></trkpt>
<trkpt lat="46.77861295" lon="7.09308900"><ele>571.879028</ele><time>2009-05-09T10:17:44Z</time></trkpt>
<trkpt lat="46.77898494" lon="7.09338195"><ele>570.476013</ele><time>2009-05-09T10:17:57Z</time></trkpt>
<trkpt lat="46.77919599" lon="7.09345395"><ele>568.465027</ele><time>2009-05-09T10:18:06Z</time></trkpt>
<trkpt lat="46.77928199" lon="7.09340592"><ele>567.836975</ele><time>2009-05-09T10:18:10Z</time></trkpt>
<trkpt lat="46.77927797" lon="7.09328698"><ele>568.349976</ele><time>2009-05-09T10:18:14Z</time></trkpt>
<trkpt lat="46.77940797" lon="7.09303393"><ele>568.789001</ele><time>2009-05-09T10:18:27Z</time></trkpt>
<trkpt lat="46.77943496" lon="7.09302194"><ele>568.572998</ele><time>2009-05-09T10:18:29Z</time></trkpt>
<trkpt lat="46.77950394" lon="7.09296897"><ele>568.825989</ele><time>2009-05-09T10:18:34Z</time></trkpt>
<trkpt lat="46.77952498" lon="7.09294994"><ele>569.258972</ele><time>2009-05-09T10:18:35Z</time></trkpt>
<trkpt lat="46.77993293" lon="7.09265599"><ele>570.950012</ele><time>2009-05-09T10:18:48Z</time></trkpt>
<trkpt lat="46.78014097" lon="7.09256899"><ele>573.109985</ele><time>2009-05-09T10:18:55Z</time></trkpt>
<trkpt lat="46.78038295" lon="7.09245097"><ele>573.840027</ele><time>2009-05-09T10:19:03Z</time></trkpt>
<trkpt lat="46.78121494" lon="7.09205593"><ele>576.22699</ele><time>2009-05-09T10:19:23Z</time></trkpt>
<trkpt lat="46.78152096" lon="7.09190296"><ele>576.273987</ele><time>2009-05-09T10:19:30Z</time></trkpt>
<trkpt lat="46.78215799" lon="7.09158093"><ele>572.914978</ele><time>2009-05-09T10:19:42Z</time></trkpt>
<trkpt lat="46.78227793" lon="7.09153793"><ele>571.867981</ele><time>2009-05-09T10:19:45Z</time></trkpt>
<trkpt lat="46.78242998" lon="7.09145193"><ele>569.664001</ele><time>2009-05-09T10:19:50Z</time></trkpt>
<trkpt lat="46.78244599" lon="7.09142896"><ele>569.487976</ele><time>2009-05-09T10:19:52Z</time></trkpt>
<trkpt lat="46.78245094" lon="7.09142393"><ele>569.843994</ele><time>2009-05-09T10:20:06Z</time></trkpt>
<trkpt lat="46.78245094" lon="7.09142393"><ele>569.752014</ele><time>2009-05-09T10:20:09Z</time></trkpt>
<trkpt lat="46.78246996" lon="7.09141798"><ele>570.130981</ele><time>2009-05-09T10:20:12Z</time></trkpt>
<trkpt lat="46.78255093" lon="7.09122394"><ele>570.744995</ele><time>2009-05-09T10:20:17Z</time></trkpt>
<trkpt lat="46.78265696" lon="7.09075196"><ele>571.788025</ele><time>2009-05-09T10:20:26Z</time></trkpt>
<trkpt lat="46.78281195" lon="7.09069094"><ele>571.232971</ele><time>2009-05-09T10:20:30Z</time></trkpt>
<trkpt lat="46.78316499" lon="7.09077300"><ele>570.66803</ele><time>2009-05-09T10:20:37Z</time></trkpt>
<trkpt lat="46.78337496" lon="7.09104993"><ele>571.572998</ele><time>2009-05-09T10:20:45Z</time></trkpt>
<trkpt lat="46.78339097" lon="7.09108497"><ele>571.979004</ele><time>2009-05-09T10:20:59Z</time></trkpt>
<trkpt lat="46.78336792" lon="7.09105396"><ele>572.091003</ele><time>2009-05-09T10:21:06Z</time></trkpt>
<trkpt lat="46.78315493" lon="7.09101892"><ele>569.005005</ele><time>2009-05-09T10:21:15Z</time></trkpt>
<trkpt lat="46.78309995" lon="7.09099394"><ele>568.562988</ele><time>2009-05-09T10:21:17Z</time></trkpt>
<trkpt lat="46.78301395" lon="7.09109796"><ele>566.231018</ele><time>2009-05-09T10:21:21Z</time></trkpt>
<trkpt lat="46.78301596" lon="7.09157196"><ele>562.125977</ele><time>2009-05-09T10:21:31Z</time></trkpt>
<trkpt lat="46.78312099" lon="7.09179098"><ele>562.017029</ele><time>2009-05-09T10:21:36Z</time></trkpt>
<trkpt lat="46.78333799" lon="7.09206892"><ele>561.330994</ele><time>2009-05-09T10:21:43Z</time></trkpt>
<trkpt lat="46.78341393" lon="7.09221192"><ele>561.296021</ele><time>2009-05-09T10:21:46Z</time></trkpt>
<trkpt lat="46.78352097" lon="7.09234100"><ele>561.749023</ele><time>2009-05-09T10:21:50Z</time></trkpt>
<trkpt lat="46.78341100" lon="7.09279194"><ele>558.580994</ele><time>2009-05-09T10:22:00Z</time></trkpt>
<trkpt lat="46.78340798" lon="7.09295497"><ele>557.208984</ele><time>2009-05-09T10:22:03Z</time></trkpt>
<trkpt lat="46.78345693" lon="7.09353198"><ele>555.531006</ele><time>2009-05-09T10:22:13Z</time></trkpt>
<trkpt lat="46.78347294" lon="7.09375595"><ele>555.177002</ele><time>2009-05-09T10:22:17Z</time></trkpt>
<trkpt lat="46.78360898" lon="7.09394697"><ele>554.856018</ele><time>2009-05-09T10:22:22Z</time></trkpt>
<trkpt lat="46.78377192" lon="7.09394798"><ele>556.20697</ele><time>2009-05-09T10:22:28Z</time></trkpt>
<trkpt lat="46.78389095" lon="7.09391395"><ele>557.830994</ele><time>2009-05-09T10:22:32Z</time></trkpt>
<trkpt lat="46.78394996" lon="7.09389593"><ele>558.499023</ele><time>2009-05-09T10:22:34Z</time></trkpt>
<trkpt lat="46.78402900" lon="7.09386592"><ele>559.661011</ele><time>2009-05-09T10:22:37Z</time></trkpt>
<trkpt lat="46.78405498" lon="7.09385494"><ele>559.460999</ele><time>2009-05-09T10:22:38Z</time></trkpt>
<trkpt lat="46.78413293" lon="7.09381294"><ele>561.017029</ele><time>2009-05-09T10:22:41Z</time></trkpt>
<trkpt lat="46.78424299" lon="7.09377900"><ele>561.76001</ele><time>2009-05-09T10:22:45Z</time></trkpt>
<trkpt lat="46.78442496" lon="7.09381496"><ele>563.289001</ele><time>2009-05-09T10:22:52Z</time></trkpt>
<trkpt lat="46.78462495" lon="7.09460596"><ele>563.853027</ele><time>2009-05-09T10:23:09Z</time></trkpt>
<trkpt lat="46.78472696" lon="7.09541297"><ele>564.541016</ele><time>2009-05-09T10:23:23Z</time></trkpt>
<trkpt lat="46.78479192" lon="7.09609098"><ele>565.247986</ele><time>2009-05-09T10:23:38Z</time></trkpt>
<trkpt lat="46.78463099" lon="7.09642097"><ele>565.437988</ele><time>2009-05-09T10:23:47Z</time></trkpt>
<trkpt lat="46.78461699" lon="7.09656296"><ele>565.781982</ele><time>2009-05-09T10:23:50Z</time></trkpt>
<trkpt lat="46.78460299" lon="7.09677796"><ele>565.544006</ele><time>2009-05-09T10:23:54Z</time></trkpt>
<trkpt lat="46.78462294" lon="7.09709597"><ele>565.835022</ele><time>2009-05-09T10:23:59Z</time></trkpt>
<trkpt lat="46.78456594" lon="7.09742295"><ele>565.388</ele><time>2009-05-09T10:24:04Z</time></trkpt>
<trkpt lat="46.78431398" lon="7.09844093"><ele>565.741028</ele><time>2009-05-09T10:24:19Z</time></trkpt>
<trkpt lat="46.78435396" lon="7.09881996"><ele>565.85498</ele><time>2009-05-09T10:24:24Z</time></trkpt>
<trkpt lat="46.78445195" lon="7.09910897"><ele>565.353027</ele><time>2009-05-09T10:24:28Z</time></trkpt>
<trkpt lat="46.78450895" lon="7.09957592"><ele>563.97699</ele><time>2009-05-09T10:24:34Z</time></trkpt>
<trkpt lat="46.78448698" lon="7.09975496"><ele>562.655029</ele><time>2009-05-09T10:24:36Z</time></trkpt>
<trkpt lat="46.78446393" lon="7.09991799"><ele>561.075012</ele><time>2009-05-09T10:24:38Z</time></trkpt>
<trkpt lat="46.78437894" lon="7.10008697"><ele>559.280029</ele><time>2009-05-09T10:24:42Z</time></trkpt>
<trkpt lat="46.78420954" lon="7.10025351"><ele>588.464844</ele><time>1989-12-31T00:00:00Z</time></trkpt>
<trkpt lat="46.78387720" lon="7.09982059"><ele>581.84375</ele><time>1989-12-31T00:00:00Z</time></trkpt>
<trkpt lat="46.78369749" lon="7.10001740"><ele>579.792969</ele><time>1989-12-31T00:00:00Z</time></trkpt>
<trkpt lat="46.78350882" lon="7.10042400"><ele>579.285156</ele><time>1989-12-31T00:00:00Z</time></trkpt>
<trkpt lat="46.78350882" lon="7.10045024"><ele>579.304688</ele><time>1989-12-31T00:00:00Z</time></trkpt>
<trkpt lat="46.78338309" lon="7.10079138"><ele>579.210938</ele><time>1989-12-31T00:00:00Z</time></trkpt>
<trkpt lat="46.78345492" lon="7.10096187"><ele>579.503906</ele><time>1989-12-31T00:00:00Z</time></trkpt>
<trkpt lat="46.78339206" lon="7.10164407"><ele>579.710938</ele><time>1989-12-31T00:00:00Z</time></trkpt>
<trkpt lat="46.78342802" lon="7.10202444"><ele>579.15625</ele><time>1989-12-31T00:00:00Z</time></trkpt>
<trkpt lat="46.78356280" lon="7.10253607"><ele>579.304688</ele><time>1989-12-31T00:00:00Z</time></trkpt>
<trkpt lat="46.78359867" lon="7.10317888"><ele>578.882813</ele><time>1989-12-31T00:00:00Z</time></trkpt>
<trkpt lat="46.78361669" lon="7.10400534"><ele>577.363281</ele><time>1989-12-31T00:00:00Z</time></trkpt>
<trkpt lat="46.78369749" lon="7.10489742"><ele>576.109375</ele><time>1989-12-31T00:00:00Z</time></trkpt>
<trkpt lat="46.78375139" lon="7.10557954"><ele>577.539063</ele><time>1989-12-31T00:00:00Z</time></trkpt>
<trkpt lat="46.78389514" lon="7.10611741"><ele>577.769531</ele><time>1989-12-31T00:00:00Z</time></trkpt>
<trkpt lat="46.78407476" lon="7.10651094"><ele>576.734375</ele><time>1989-12-31T00:00:00Z</time></trkpt>
<trkpt lat="46.78408382" lon="7.10652410"><ele>576.746094</ele><time>1989-12-31T00:00:00Z</time></trkpt>
<trkpt lat="46.78438020" lon="7.10694387"><ele>576.070313</ele><time>1989-12-31T00:00:00Z</time></trkpt>
<trkpt lat="46.78461380" lon="7.10714067"><ele>575.070313</ele><time>1989-12-31T00:00:00Z</time></trkpt>
<trkpt lat="46.78459494" lon="7.10728392"><ele>547.580994</ele><time>2009-05-09T10:26:16Z</time></trkpt>
<trkpt lat="46.78463300" lon="7.10789999"><ele>548.369019</ele><time>2009-05-09T10:26:25Z</time></trkpt>
<trkpt lat="46.78472394" lon="7.10818598"><ele>548.466003</ele><time>2009-05-09T10:26:29Z</time></trkpt>
<trkpt lat="46.78539994" lon="7.10936892"><ele>547.44397</ele><time>2009-05-09T10:26:47Z</time></trkpt>
<trkpt lat="46.78560295" lon="7.10991098"><ele>546.791992</ele><time>2009-05-09T10:26:54Z</time></trkpt>
<trkpt lat="46.78547798" lon="7.11027492"><ele>546.895996</ele><time>2009-05-09T10:27:00Z</time></trkpt>
<trkpt lat="46.78542299" lon="7.11027592"><ele>546.958008</ele><time>2009-05-09T10:27:01Z</time></trkpt>
<trkpt lat="46.78481195" lon="7.11009094"><ele>548.88501</ele><time>2009-05-09T10:27:13Z</time></trkpt>
<trkpt lat="46.78471698" lon="7.11004592"><ele>549.057007</ele><time>2009-05-09T10:27:15Z</time></trkpt>
<trkpt lat="46.78443200" lon="7.11007895"><ele>550.627991</ele><time>2009-05-09T10:27:21Z</time></trkpt>
<trkpt lat="46.78409597" lon="7.11031892"><ele>552.922974</ele><time>2009-05-09T10:27:30Z</time></trkpt>
<trkpt lat="46.78381593" lon="7.11053895"><ele>555.156982</ele><time>2009-05-09T10:27:39Z</time></trkpt>
<trkpt lat="46.78354695" lon="7.11076300"><ele>556.901001</ele><time>2009-05-09T10:27:48Z</time></trkpt>
<trkpt lat="46.78324093" lon="7.11096299"><ele>557.937012</ele><time>2009-05-09T10:27:57Z</time></trkpt>
<trkpt lat="46.78272595" lon="7.11124294"><ele>560.638977</ele><time>2009-05-09T10:28:11Z</time></trkpt>
<trkpt lat="46.78269192" lon="7.11126197"><ele>560.976013</ele><time>2009-05-09T10:28:12Z</time></trkpt>
<trkpt lat="46.78199496" lon="7.11169599"><ele>565.664978</ele><time>2009-05-09T10:28:34Z</time></trkpt>
<trkpt lat="46.78173797" lon="7.11205993"><ele>568.976013</ele><time>2009-05-09T10:28:47Z</time></trkpt>
<trkpt lat="46.78171492" lon="7.11216998"><ele>569.317017</ele><time>2009-05-09T10:28:50Z</time></trkpt>
<trkpt lat="46.78162297" lon="7.11211894"><ele>570.231995</ele><time>2009-05-09T10:28:55Z</time></trkpt>
<trkpt lat="46.78137294" lon="7.11167998"><ele>573.728027</ele><time>2009-05-09T10:29:13Z</time></trkpt>
<trkpt lat="46.78110799" lon="7.11131997"><ele>577.786987</ele><time>2009-05-09T10:29:32Z</time></trkpt>
<trkpt lat="46.78087296" lon="7.11089996"><ele>582.473022</ele><time>2009-05-09T10:29:53Z</time></trkpt>
<trkpt lat="46.78066995" lon="7.11049494"><ele>587.21698</ele><time>2009-05-09T10:30:14Z</time></trkpt>
<trkpt lat="46.78043894" lon="7.11014098"><ele>591.69397</ele><time>2009-05-09T10:30:35Z</time></trkpt>
<trkpt lat="46.78022093" lon="7.10989296"><ele>596.223022</ele><time>2009-05-09T10:30:52Z</time></trkpt>
<trkpt lat="46.78007098" lon="7.10965692"><ele>600.424988</ele><time>2009-05-09T10:31:08Z</time></trkpt>
<trkpt lat="46.78006595" lon="7.10962297"><ele>600.478027</ele><time>2009-05-09T10:31:10Z</time></trkpt>
<trkpt lat="46.78005698" lon="7.10958593"><ele>601.208008</ele><time>2009-05-09T10:31:21Z</time></trkpt>
<trkpt lat="46.78002496" lon="7.10959096"><ele>601.132019</ele><time>2009-05-09T10:31:34Z</time></trkpt>
<trkpt lat="46.77997693" lon="7.10954896"><ele>601.302979</ele><time>2009-05-09T10:31:39Z</time></trkpt>
<trkpt lat="46.77986696" lon="7.10939398"><ele>602.432983</ele><time>2009-05-09T10:31:53Z</time></trkpt>
<trkpt lat="46.77983997" lon="7.10933095"><ele>602.981018</ele><time>2009-05-09T10:32:09Z</time></trkpt>
<trkpt lat="46.77980594" lon="7.10927797"><ele>603.614014</ele><time>2009-05-09T10:32:14Z</time></trkpt>
<trkpt lat="46.77978692" lon="7.10923699"><ele>603.763977</ele><time>2009-05-09T10:32:20Z</time></trkpt>
<trkpt lat="46.77949497" lon="7.10878093"><ele>609.52301</ele><time>2009-05-09T10:32:42Z</time></trkpt>
<trkpt lat="46.77937193" lon="7.10857498"><ele>612.380981</ele><time>2009-05-09T10:32:53Z</time></trkpt>
<trkpt lat="46.77928794" lon="7.10846795"><ele>614.19397</ele><time>2009-05-09T10:33:00Z</time></trkpt>
<trkpt lat="46.77927093" lon="7.10843392"><ele>614.625977</ele><time>2009-05-09T10:33:05Z</time></trkpt>
<trkpt lat="46.77926095" lon="7.10842595"><ele>614.523987</ele><time>2009-05-09T10:33:17Z</time></trkpt>
<trkpt lat="46.77927596" lon="7.10845596"><ele>614.333008</ele><time>2009-05-09T10:33:27Z</time></trkpt>
<trkpt lat="46.77925894" lon="7.10846795"><ele>615.01001</ele><time>2009-05-09T10:33:34Z</time></trkpt>
<trkpt lat="46.77911796" lon="7.10828195"><ele>617.518005</ele><time>2009-05-09T10:33:50Z</time></trkpt>
<trkpt lat="46.77896792" lon="7.10807400"><ele>620.164978</ele><time>2009-05-09T10:34:03Z</time></trkpt>
<trkpt lat="46.77895493" lon="7.10805799"><ele>620.510986</ele><time>2009-05-09T10:34:04Z</time></trkpt>
<trkpt lat="46.77876692" lon="7.10784299"><ele>623.906982</ele><time>2009-05-09T10:34:19Z</time></trkpt>
<trkpt lat="46.77863600" lon="7.10767695"><ele>626.099976</ele><time>2009-05-09T10:34:29Z</time></trkpt>
<trkpt lat="46.77845797" lon="7.10748098"><ele>628.544983</ele><time>2009-05-09T10:34:41Z</time></trkpt>
<trkpt lat="46.77825496" lon="7.10726095"><ele>630.651001</ele><time>2009-05-09T10:34:55Z</time></trkpt>
<trkpt lat="46.77812797" lon="7.10710295"><ele>632.515015</ele><time>2009-05-09T10:35:06Z</time></trkpt>
<trkpt lat="46.77804600" lon="7.10699793"><ele>633.749023</ele><time>2009-05-09T10:35:13Z</time></trkpt>
<trkpt lat="46.77781994" lon="7.10676500"><ele>636.403015</ele><time>2009-05-09T10:35:29Z</time></trkpt>
<trkpt lat="46.77763998" lon="7.10654296"><ele>638.781982</ele><time>2009-05-09T10:35:42Z</time></trkpt>
<trkpt lat="46.77746094" lon="7.10637096"><ele>640.687988</ele><time>2009-05-09T10:35:54Z</time></trkpt>
<trkpt lat="46.77736899" lon="7.10627499"><ele>641.557007</ele><time>2009-05-09T10:36:00Z</time></trkpt>
<trkpt lat="46.77733596" lon="7.10622495"><ele>642.348022</ele><time>2009-05-09T10:36:04Z</time></trkpt>
<trkpt lat="46.77715994" lon="7.10599998"><ele>644.390991</ele><time>2009-05-09T10:36:18Z</time></trkpt>
<trkpt lat="46.77703195" lon="7.10581692"><ele>646.166016</ele><time>2009-05-09T10:36:29Z</time></trkpt>
<trkpt lat="46.77695392" lon="7.10570997"><ele>647.39801</ele><time>2009-05-09T10:36:35Z</time></trkpt>
<trkpt lat="46.77673398" lon="7.10549296"><ele>649.494995</ele><time>2009-05-09T10:36:51Z</time></trkpt>
<trkpt lat="46.77654295" lon="7.10529598"><ele>650.69397</ele><time>2009-05-09T10:37:05Z</time></trkpt>
<trkpt lat="46.77636199" lon="7.10502793"><ele>651.291992</ele><time>2009-05-09T10:37:17Z</time></trkpt>
<trkpt lat="46.77612495" lon="7.10475996"><ele>651.471985</ele><time>2009-05-09T10:37:28Z</time></trkpt>
<trkpt lat="46.77574592" lon="7.10439099"><ele>651.255981</ele><time>2009-05-09T10:37:41Z</time></trkpt>
<trkpt lat="46.77542598" lon="7.10413199"><ele>650.775024</ele><time>2009-05-09T10:37:50Z</time></trkpt>
<trkpt lat="46.77518592" lon="7.10396896"><ele>649.025024</ele><time>2009-05-09T10:37:56Z</time></trkpt>
<trkpt lat="46.77473699" lon="7.10367593"><ele>648.286011</ele><time>2009-05-09T10:38:05Z</time></trkpt>
<trkpt lat="46.77468795" lon="7.10364995"><ele>648.36499</ele><time>2009-05-09T10:38:06Z</time></trkpt>
<trkpt lat="46.77409099" lon="7.10312298"><ele>648.572998</ele><time>2009-05-09T10:38:21Z</time></trkpt>
<trkpt lat="46.77375094" lon="7.10273498"><ele>649.189026</ele><time>2009-05-09T10:38:32Z</time></trkpt>
<trkpt lat="46.77314200" lon="7.10193300"><ele>646.622986</ele><time>2009-05-09T10:38:48Z</time></trkpt>
<trkpt lat="46.77216198" lon="7.10086900"><ele>644.442017</ele><time>2009-05-09T10:39:09Z</time></trkpt>
<trkpt lat="46.77168497" lon="7.10040397"><ele>643.354004</ele><time>2009-05-09T10:39:18Z</time></trkpt>
<trkpt lat="46.77147894" lon="7.10043892"><ele>643.440979</ele><time>2009-05-09T10:39:23Z</time></trkpt>
<trkpt lat="46.77140895" lon="7.10056893"><ele>644.435974</ele><time>2009-05-09T10:39:26Z</time></trkpt>
<trkpt lat="46.77128599" lon="7.10056297"><ele>644.692017</ele><time>2009-05-09T10:39:30Z</time></trkpt>
<trkpt lat="46.77054796" lon="7.09973996"><ele>642.692993</ele><time>2009-05-09T10:39:49Z</time></trkpt>
<trkpt lat="46.76985495" lon="7.09893596"><ele>642.794006</ele><time>2009-05-09T10:40:02Z</time></trkpt>
<trkpt lat="46.76948095" lon="7.09849600"><ele>641.758972</ele><time>2009-05-09T10:40:13Z</time></trkpt>
<trkpt lat="46.76912698" lon="7.09796995"><ele>642.205994</ele><time>2009-05-09T10:40:22Z</time></trkpt>
<trkpt lat="46.76873898" lon="7.09768698"><ele>645.434021</ele><time>2009-05-09T10:40:35Z</time></trkpt>
<trkpt lat="46.76858693" lon="7.09754993"><ele>645.791016</ele><time>2009-05-09T10:40:41Z</time></trkpt>
<trkpt lat="46.76817899" lon="7.09698600"><ele>646.445984</ele><time>2009-05-09T10:40:56Z</time></trkpt>
<trkpt lat="46.76808595" lon="7.09691299"><ele>646.234009</ele><time>2009-05-09T10:40:59Z</time></trkpt>
<trkpt lat="46.76809198" lon="7.09667092"><ele>643.432007</ele><time>2009-05-09T10:41:04Z</time></trkpt>
<trkpt lat="46.76812492" lon="7.09661694"><ele>642.445007</ele><time>2009-05-09T10:41:05Z</time></trkpt>
<trkpt lat="46.76848995" lon="7.09617899"><ele>632.953979</ele><time>2009-05-09T10:41:15Z</time></trkpt>
<trkpt lat="46.76859096" lon="7.09606793"><ele>630.413025</ele><time>2009-05-09T10:41:18Z</time></trkpt>
<trkpt lat="46.76881995" lon="7.09566300"><ele>622.093994</ele><time>2009-05-09T10:41:27Z</time></trkpt>
<trkpt lat="46.76884795" lon="7.09553693"><ele>620.450989</ele><time>2009-05-09T10:41:29Z</time></trkpt>
<trkpt lat="46.76882096" lon="7.09535396"><ele>619.20697</ele><time>2009-05-09T10:41:32Z</time></trkpt>
<trkpt lat="46.76875197" lon="7.09509596"><ele>618.53302</ele><time>2009-05-09T10:41:36Z</time></trkpt>
<trkpt lat="46.76875398" lon="7.09433195"><ele>617.455017</ele><time>2009-05-09T10:41:46Z</time></trkpt>
<trkpt lat="46.76883495" lon="7.09307693"><ele>616.448975</ele><time>2009-05-09T10:42:02Z</time></trkpt>
<trkpt lat="46.76899496" lon="7.09198292"><ele>615.882996</ele><time>2009-05-09T10:42:17Z</time></trkpt>
<trkpt lat="46.76903293" lon="7.09145595"><ele>615.43103</ele><time>2009-05-09T10:42:23Z</time></trkpt>
<trkpt lat="46.76905992" lon="7.09086293"><ele>614.854004</ele><time>2009-05-09T10:42:30Z</time></trkpt>
<trkpt lat="46.76906093" lon="7.09028098"><ele>613.895996</ele><time>2009-05-09T10:42:37Z</time></trkpt>
<trkpt lat="46.76907895" lon="7.09004997"><ele>613.453979</ele><time>2009-05-09T10:42:40Z</time></trkpt>
<trkpt lat="46.76908096" lon="7.08995995"><ele>613.547974</ele><time>2009-05-09T10:42:41Z</time></trkpt>
<trkpt lat="46.76905992" lon="7.08968092"><ele>612.874023</ele><time>2009-05-09T10:42:44Z</time></trkpt>
<trkpt lat="46.76895599" lon="7.08905999"><ele>613.080017</ele><time>2009-05-09T10:42:51Z</time></trkpt>
<trkpt lat="46.76889497" lon="7.08890794"><ele>613.174011</ele><time>2009-05-09T10:42:53Z</time></trkpt>
<trkpt lat="46.76847495" lon="7.08807193"><ele>612.47998</ele><time>2009-05-09T10:43:05Z</time></trkpt>
<trkpt lat="46.76794496" lon="7.08721396"><ele>611.281006</ele><time>2009-05-09T10:43:18Z</time></trkpt>
<trkpt lat="46.76790993" lon="7.08715696"><ele>611.796021</ele><time>2009-05-09T10:43:19Z</time></trkpt>
<trkpt lat="46.76784396" lon="7.08707993"><ele>612.328003</ele><time>2009-05-09T10:43:21Z</time></trkpt>
<trkpt lat="46.76775595" lon="7.08688497"><ele>612.487</ele><time>2009-05-09T10:43:25Z</time></trkpt>
<trkpt lat="46.76750500" lon="7.08644793"><ele>613.327026</ele><time>2009-05-09T10:43:36Z</time></trkpt>
<trkpt lat="46.76735999" lon="7.08621793"><ele>613.768005</ele><time>2009-05-09T10:43:43Z</time></trkpt>
<trkpt lat="46.76711499" lon="7.08645992"><ele>616.926025</ele><time>2009-05-09T10:43:54Z</time></trkpt>
<trkpt lat="46.76701499" lon="7.08657098"><ele>617.909973</ele><time>2009-05-09T10:43:59Z</time></trkpt>
<trkpt lat="46.76695598" lon="7.08664600"><ele>618.481995</ele><time>2009-05-09T10:44:02Z</time></trkpt>
<trkpt lat="46.76682497" lon="7.08672797"><ele>617.853027</ele><time>2009-05-09T10:44:06Z</time></trkpt>
<trkpt lat="46.76643094" lon="7.08676795"><ele>616.125977</ele><time>2009-05-09T10:44:13Z</time></trkpt>
<trkpt lat="46.76622399" lon="7.08665296"><ele>616.669006</ele><time>2009-05-09T10:44:17Z</time></trkpt>
<trkpt lat="46.76574295" lon="7.08648196"><ele>618.333984</ele><time>2009-05-09T10:44:31Z</time></trkpt>
<trkpt lat="46.76562100" lon="7.08628197"><ele>619.080017</ele><time>2009-05-09T10:44:38Z</time></trkpt>
<trkpt lat="46.76559292" lon="7.08561796"><ele>621.604004</ele><time>2009-05-09T10:44:55Z</time></trkpt>
<trkpt lat="46.76556392" lon="7.08476099"><ele>625.473022</ele><time>2009-05-09T10:45:18Z</time></trkpt>
<trkpt lat="46.76552595" lon="7.08386396"><ele>627.788025</ele><time>2009-05-09T10:45:40Z</time></trkpt>
<trkpt lat="46.76550499" lon="7.08333892"><ele>627.203003</ele><time>2009-05-09T10:45:51Z</time></trkpt>
<trkpt lat="46.76549393" lon="7.08304798"><ele>625.804016</ele><time>2009-05-09T10:45:57Z</time></trkpt>
<trkpt lat="46.76547599" lon="7.08265093"><ele>623.710022</ele><time>2009-05-09T10:46:02Z</time></trkpt>
<trkpt lat="46.76546895" lon="7.08254700"><ele>623.445007</ele><time>2009-05-09T10:46:03Z</time></trkpt>
<trkpt lat="46.76545093" lon="7.08177896"><ele>621.976013</ele><time>2009-05-09T10:46:11Z</time></trkpt>
<trkpt lat="46.76547498" lon="7.08141393"><ele>621.195007</ele><time>2009-05-09T10:46:16Z</time></trkpt>
<trkpt lat="46.76560599" lon="7.08080197"><ele>620.580994</ele><time>2009-05-09T10:46:24Z</time></trkpt>
<trkpt lat="46.76562896" lon="7.08073298"><ele>620.538025</ele><time>2009-05-09T10:46:25Z</time></trkpt>
<trkpt lat="46.76566098" lon="7.08059292"><ele>620.369019</ele><time>2009-05-09T10:46:27Z</time></trkpt>
<trkpt lat="46.76567799" lon="7.08032194"><ele>620.070007</ele><time>2009-05-09T10:46:33Z</time></trkpt>
<trkpt lat="46.76552092" lon="7.08005497"><ele>617.322021</ele><time>2009-05-09T10:46:41Z</time></trkpt>
<trkpt lat="46.76563499" lon="7.07993092"><ele>615.710999</ele><time>2009-05-09T10:46:48Z</time></trkpt>
<trkpt lat="46.76566400" lon="7.07978600"><ele>614.169983</ele><time>2009-05-09T10:46:51Z</time></trkpt>
<trkpt lat="46.76556693" lon="7.07957393"><ele>612.68103</ele><time>2009-05-09T10:46:59Z</time></trkpt>
<trkpt lat="46.76552393" lon="7.07959699"><ele>613.426025</ele><time>2009-05-09T10:47:01Z</time></trkpt>
<trkpt lat="46.76528497" lon="7.07968692"><ele>617.760986</ele><time>2009-05-09T10:47:13Z</time></trkpt>
<trkpt lat="46.76521892" lon="7.07970293"><ele>618.810974</ele><time>2009-05-09T10:47:17Z</time></trkpt>
<trkpt lat="46.76516192" lon="7.07971693"><ele>619.35498</ele><time>2009-05-09T10:47:20Z</time></trkpt>
<trkpt lat="46.76491692" lon="7.07963697"><ele>622.612</ele><time>2009-05-09T10:47:35Z</time></trkpt>
<trkpt lat="46.76486797" lon="7.07959598"><ele>623.388977</ele><time>2009-05-09T10:47:38Z</time></trkpt>
<trkpt lat="46.76463797" lon="7.07948098"><ele>625.969971</ele><time>2009-05-09T10:47:51Z</time></trkpt>
<trkpt lat="46.76445994" lon="7.07970997"><ele>627.78302</ele><time>2009-05-09T10:48:04Z</time></trkpt>
<trkpt lat="46.76426497" lon="7.07992497"><ele>630.546021</ele><time>2009-05-09T10:48:17Z</time></trkpt>
<trkpt lat="46.76395493" lon="7.07990795"><ele>632.414001</ele><time>2009-05-09T10:48:32Z</time></trkpt>
<trkpt lat="46.76357196" lon="7.08004793"><ele>633.320007</ele><time>2009-05-09T10:48:47Z</time></trkpt>
<trkpt lat="46.76324196" lon="7.08031397"><ele>633.513977</ele><time>2009-05-09T10:49:00Z</time></trkpt>
<trkpt lat="46.76292395" lon="7.08053199"><ele>633.341003</ele><time>2009-05-09T10:49:10Z</time></trkpt>
<trkpt lat="46.76252900" lon="7.08044398"><ele>634.554016</ele><time>2009-05-09T10:49:22Z</time></trkpt>
<trkpt lat="46.76215399" lon="7.08038899"><ele>637.033997</ele><time>2009-05-09T10:49:36Z</time></trkpt>
<trkpt lat="46.76214100" lon="7.07991893"><ele>637.455994</ele><time>2009-05-09T10:49:47Z</time></trkpt>
<trkpt lat="46.76224996" lon="7.07937797"><ele>639.723999</ele><time>2009-05-09T10:49:59Z</time></trkpt>
<trkpt lat="46.76230193" lon="7.07876399"><ele>641.072021</ele><time>2009-05-09T10:50:12Z</time></trkpt>
<trkpt lat="46.76227293" lon="7.07824398"><ele>642.885986</ele><time>2009-05-09T10:50:26Z</time></trkpt>
<trkpt lat="46.76235097" lon="7.07777694"><ele>644.437012</ele><time>2009-05-09T10:50:40Z</time></trkpt>
<trkpt lat="46.76231895" lon="7.07730194"><ele>645.487</ele><time>2009-05-09T10:50:52Z</time></trkpt>
<trkpt lat="46.76222096" lon="7.07681193"><ele>646.495972</ele><time>2009-05-09T10:51:04Z</time></trkpt>
<trkpt lat="46.76219598" lon="7.07630994"><ele>646.867004</ele><time>2009-05-09T10:51:16Z</time></trkpt>
<trkpt lat="46.76210496" lon="7.07572698"><ele>646.773987</ele><time>2009-05-09T10:51:28Z</time></trkpt>
<trkpt lat="46.76194193" lon="7.07519992"><ele>647.062988</ele><time>2009-05-09T10:51:39Z</time></trkpt>
<trkpt lat="46.76160498" lon="7.07444496"><ele>647.531982</ele><time>2009-05-09T10:51:56Z</time></trkpt>
<trkpt lat="46.76117197" lon="7.07373795"><ele>648.153992</ele><time>2009-05-09T10:52:14Z</time></trkpt>
<trkpt lat="46.76089092" lon="7.07331995"><ele>650.544006</ele><time>2009-05-09T10:52:30Z</time></trkpt>
<trkpt lat="46.76074692" lon="7.07274193"><ele>650.414978</ele><time>2009-05-09T10:52:42Z</time></trkpt>
<trkpt lat="46.76052396" lon="7.07210097"><ele>648.973999</ele><time>2009-05-09T10:52:53Z</time></trkpt>
<trkpt lat="46.76035699" lon="7.07171892"><ele>648.403992</ele><time>2009-05-09T10:52:59Z</time></trkpt>
<trkpt lat="46.76019397" lon="7.07137099"><ele>647.658997</ele><time>2009-05-09T10:53:04Z</time></trkpt>
<trkpt lat="46.76009699" lon="7.07117795"><ele>647.026001</ele><time>2009-05-09T10:53:07Z</time></trkpt>
<trkpt lat="46.76003898" lon="7.07104493"><ele>647.083984</ele><time>2009-05-09T10:53:09Z</time></trkpt>
<trkpt lat="46.75996196" lon="7.07088400"><ele>645.953979</ele><time>2009-05-09T10:53:11Z</time></trkpt>
<trkpt lat="46.75952794" lon="7.07020598"><ele>645.372986</ele><time>2009-05-09T10:53:20Z</time></trkpt>
<trkpt lat="46.75902000" lon="7.06956594"><ele>645.841003</ele><time>2009-05-09T10:53:34Z</time></trkpt>
<trkpt lat="46.75857400" lon="7.06878894"><ele>646.888</ele><time>2009-05-09T10:53:50Z</time></trkpt>
<trkpt lat="46.75851792" lon="7.06844796"><ele>647.091003</ele><time>2009-05-09T10:53:56Z</time></trkpt>
<trkpt lat="46.75856997" lon="7.06801596"><ele>647.661011</ele><time>2009-05-09T10:54:04Z</time></trkpt>
<trkpt lat="46.75876996" lon="7.06719294"><ele>646.31897</ele><time>2009-05-09T10:54:16Z</time></trkpt>
<trkpt lat="46.75877198" lon="7.06612894"><ele>645.119019</ele><time>2009-05-09T10:54:29Z</time></trkpt>
<trkpt lat="46.75872697" lon="7.06573600"><ele>644.758972</ele><time>2009-05-09T10:54:34Z</time></trkpt>
<trkpt lat="46.75861792" lon="7.06544297"><ele>645.083008</ele><time>2009-05-09T10:54:39Z</time></trkpt>
<trkpt lat="46.75839697" lon="7.06521699"><ele>647.409973</ele><time>2009-05-09T10:54:51Z</time></trkpt>
<trkpt lat="46.75812297" lon="7.06493595"><ele>650.877991</ele><time>2009-05-09T10:55:09Z</time></trkpt>
<trkpt lat="46.75798994" lon="7.06487392"><ele>652.76001</ele><time>2009-05-09T10:55:16Z</time></trkpt>
<trkpt lat="46.75784896" lon="7.06481692"><ele>654.825012</ele><time>2009-05-09T10:55:24Z</time></trkpt>
<trkpt lat="46.75775793" lon="7.06479597"><ele>656.382996</ele><time>2009-05-09T10:55:29Z</time></trkpt>
<trkpt lat="46.75765098" lon="7.06478499"><ele>656.961975</ele><time>2009-05-09T10:55:35Z</time></trkpt>
<trkpt lat="46.75744898" lon="7.06476294"><ele>655.286011</ele><time>2009-05-09T10:55:42Z</time></trkpt>
<trkpt lat="46.75733699" lon="7.06474995"><ele>653.994019</ele><time>2009-05-09T10:55:44Z</time></trkpt>
<trkpt lat="46.75713398" lon="7.06470997"><ele>652.588989</ele><time>2009-05-09T10:55:47Z</time></trkpt>
<trkpt lat="46.75673299" lon="7.06474895"><ele>651.609985</ele><time>2009-05-09T10:55:53Z</time></trkpt>
<trkpt lat="46.75631600" lon="7.06458097"><ele>650.987976</ele><time>2009-05-09T10:56:01Z</time></trkpt>
<trkpt lat="46.75597896" lon="7.06424695"><ele>651.008972</ele><time>2009-05-09T10:56:09Z</time></trkpt>
<trkpt lat="46.75562994" lon="7.06395292"><ele>650.202026</ele><time>2009-05-09T10:56:16Z</time></trkpt>
<trkpt lat="46.75537094" lon="7.06380799"><ele>650.086975</ele><time>2009-05-09T10:56:21Z</time></trkpt>
<trkpt lat="46.75467792" lon="7.06381294"><ele>653.088989</ele><time>2009-05-09T10:56:37Z</time></trkpt>
<trkpt lat="46.75448899" lon="7.06383792"><ele>654.864014</ele><time>2009-05-09T10:56:43Z</time></trkpt>
<trkpt lat="46.75427794" lon="7.06385694"><ele>657.070984</ele><time>2009-05-09T10:56:51Z</time></trkpt>
<trkpt lat="46.75417299" lon="7.06385996"><ele>657.671997</ele><time>2009-05-09T10:56:55Z</time></trkpt>
<trkpt lat="46.75402899" lon="7.06391495"><ele>658.781982</ele><time>2009-05-09T10:57:01Z</time></trkpt>
<trkpt lat="46.75404794" lon="7.06409994"><ele>660.036987</ele><time>2009-05-09T10:57:06Z</time></trkpt>
<trkpt lat="46.75427492" lon="7.06487694"><ele>661.924011</ele><time>2009-05-09T10:57:25Z</time></trkpt>
<trkpt lat="46.75443795" lon="7.06550097"><ele>664.695984</ele><time>2009-05-09T10:57:40Z</time></trkpt>
<trkpt lat="46.75460299" lon="7.06608494"><ele>666.814026</ele><time>2009-05-09T10:57:54Z</time></trkpt>
<trkpt lat="46.75472897" lon="7.06668793"><ele>669.260986</ele><time>2009-05-09T10:58:09Z</time></trkpt>
<trkpt lat="46.75482293" lon="7.06742194"><ele>671.689026</ele><time>2009-05-09T10:58:25Z</time></trkpt>
<trkpt lat="46.75486199" lon="7.06788696"><ele>674.362976</ele><time>2009-05-09T10:58:38Z</time></trkpt>
<trkpt lat="46.75499693" lon="7.06855894"><ele>677.745972</ele><time>2009-05-09T10:58:53Z</time></trkpt>
<trkpt lat="46.75514194" lon="7.06935396"><ele>682.289001</ele><time>2009-05-09T10:59:12Z</time></trkpt>
<trkpt lat="46.75496299" lon="7.06995394"><ele>685.939026</ele><time>2009-05-09T10:59:29Z</time></trkpt>
<trkpt lat="46.75467197" lon="7.07059298"><ele>688.65802</ele><time>2009-05-09T10:59:50Z</time></trkpt>
<trkpt lat="46.75465294" lon="7.07061695"><ele>689.041016</ele><time>2009-05-09T10:59:51Z</time></trkpt>
<trkpt lat="46.75448799" lon="7.07054897"><ele>689.890991</ele><time>2009-05-09T10:59:58Z</time></trkpt>
<trkpt lat="46.75384996" lon="7.07062097"><ele>692.937988</ele><time>2009-05-09T11:00:20Z</time></trkpt>
<trkpt lat="46.75325392" lon="7.07081292"><ele>698.47699</ele><time>2009-05-09T11:00:43Z</time></trkpt>
<trkpt lat="46.75284597" lon="7.07076397"><ele>702.244019</ele><time>2009-05-09T11:01:00Z</time></trkpt>
<trkpt lat="46.75256300" lon="7.07038393"><ele>703.374023</ele><time>2009-05-09T11:01:13Z</time></trkpt>
<trkpt lat="46.75236393" lon="7.06991094"><ele>703.995972</ele><time>2009-05-09T11:01:22Z</time></trkpt>
<trkpt lat="46.75225496" lon="7.06963099"><ele>704.460999</ele><time>2009-05-09T11:01:27Z</time></trkpt>
<trkpt lat="46.75209998" lon="7.06889095"><ele>705.606018</ele><time>2009-05-09T11:01:40Z</time></trkpt>
<trkpt lat="46.75207693" lon="7.06878399"><ele>705.724976</ele><time>2009-05-09T11:01:42Z</time></trkpt>
<trkpt lat="46.75202496" lon="7.06814094"><ele>706.343018</ele><time>2009-05-09T11:01:54Z</time></trkpt>
<trkpt lat="46.75211499" lon="7.06733996"><ele>706.26001</ele><time>2009-05-09T11:02:06Z</time></trkpt>
<trkpt lat="46.75216695" lon="7.06698599"><ele>705.783997</ele><time>2009-05-09T11:02:11Z</time></trkpt>
<trkpt lat="46.75217592" lon="7.06673898"><ele>705.504028</ele><time>2009-05-09T11:02:14Z</time></trkpt>
<trkpt lat="46.75216000" lon="7.06656497"><ele>705.362976</ele><time>2009-05-09T11:02:16Z</time></trkpt>
<trkpt lat="46.75204298" lon="7.06615794"><ele>704.742004</ele><time>2009-05-09T11:02:21Z</time></trkpt>
<trkpt lat="46.75192220" lon="7.06573659"><ele>709.601563</ele><time>1989-12-31T00:00:00Z</time></trkpt>
<trkpt lat="46.75163479" lon="7.06533015"><ele>710.21875</ele><time>1989-12-31T00:00:00Z</time></trkpt>
<trkpt lat="46.75133832" lon="7.06492371"><ele>709.457031</ele><time>1989-12-31T00:00:00Z</time></trkpt>
<trkpt lat="46.75097899" lon="7.06466144"><ele>708.097656</ele><time>1989-12-31T00:00:00Z</time></trkpt>
<trkpt lat="46.75058378" lon="7.06430747"><ele>705.902344</ele><time>1989-12-31T00:00:00Z</time></trkpt>
<trkpt lat="46.75026032" lon="7.06391411"><ele>706.625</ele><time>1989-12-31T00:00:00Z</time></trkpt>
<trkpt lat="46.75000878" lon="7.06344212"><ele>707.214844</ele><time>1989-12-31T00:00:00Z</time></trkpt>
<trkpt lat="46.74982019" lon="7.06273410"><ele>707.359375</ele><time>1989-12-31T00:00:00Z</time></trkpt>
<trkpt lat="46.74965850" lon="7.06234083"><ele>706.910156</ele><time>1989-12-31T00:00:00Z</time></trkpt>
<trkpt lat="46.74930814" lon="7.06197370"><ele>706.894531</ele><time>1989-12-31T00:00:00Z</time></trkpt>
<trkpt lat="46.74912843" lon="7.06182945"><ele>707.089844</ele><time>1989-12-31T00:00:00Z</time></trkpt>
<trkpt lat="46.74887697" lon="7.06140993"><ele>706.023438</ele><time>1989-12-31T00:00:00Z</time></trkpt>
<trkpt lat="46.74769596" lon="7.06169215"><ele>709.675781</ele><time>1989-12-31T00:00:00Z</time></trkpt>
<trkpt lat="46.74605210" lon="7.06216405"><ele>709.867188</ele><time>1989-12-31T00:00:00Z</time></trkpt>
<trkpt lat="46.74499204" lon="7.06238693"><ele>706.746094</ele><time>1989-12-31T00:00:00Z</time></trkpt>
<trkpt lat="46.74464202" lon="7.06246580"><ele>706.179688</ele><time>1989-12-31T00:00:00Z</time></trkpt>
<trkpt lat="46.74412997" lon="7.06240025"><ele>707.0625</ele><time>1989-12-31T00:00:00Z</time></trkpt>
<trkpt lat="46.74386946" lon="7.06234787"><ele>707.121094</ele><time>1989-12-31T00:00:00Z</time></trkpt>
<trkpt lat="46.74375270" lon="7.06229540"><ele>707.121094</ele><time>1989-12-31T00:00:00Z</time></trkpt>
<trkpt lat="46.74332153" lon="7.06205945"><ele>705.859375</ele><time>1989-12-31T00:00:00Z</time></trkpt>
<trkpt lat="46.74275558" lon="7.06160062"><ele>704.40625</ele><time>1989-12-31T00:00:00Z</time></trkpt>
<trkpt lat="46.74270169" lon="7.06146953"><ele>704.132813</ele><time>1989-12-31T00:00:00Z</time></trkpt>
<trkpt lat="46.74262977" lon="7.06106317"><ele>703.660156</ele><time>1989-12-31T00:00:00Z</time></trkpt>
<trkpt lat="46.74218964" lon="7.06015860"><ele>702.261719</ele><time>1989-12-31T00:00:00Z</time></trkpt>
<trkpt lat="46.74156083" lon="7.05950313"><ele>700.71875</ele><time>1989-12-31T00:00:00Z</time></trkpt>
<trkpt lat="46.74137693" lon="7.05937908"><ele>700.023438</ele><time>1989-12-31T00:00:00Z</time></trkpt>
<trkpt lat="46.74106252" lon="7.05928730"><ele>698.304688</ele><time>1989-12-31T00:00:00Z</time></trkpt>
<trkpt lat="46.74084694" lon="7.05922175"><ele>695.582031</ele><time>1989-12-31T00:00:00Z</time></trkpt>
<trkpt lat="46.74033489" lon="7.05902511"><ele>689.136719</ele><time>1989-12-31T00:00:00Z</time></trkpt>
<trkpt lat="46.73974204" lon="7.05874985"><ele>684.113281</ele><time>1989-12-31T00:00:00Z</time></trkpt>
<trkpt lat="46.73914919" lon="7.05842212"><ele>680.527344</ele><time>1989-12-31T00:00:00Z</time></trkpt>
<trkpt lat="46.73868206" lon="7.05819933"><ele>679.996094</ele><time>1989-12-31T00:00:00Z</time></trkpt>
<trkpt lat="46.73814302" lon="7.05818617"><ele>678.824219</ele><time>1989-12-31T00:00:00Z</time></trkpt>
<trkpt lat="46.73791847" lon="7.05783228"><ele>679</ele><time>1989-12-31T00:00:00Z</time></trkpt>
<trkpt lat="46.73782292" lon="7.05767697"><ele>675.122009</ele><time>2009-05-09T11:09:04Z</time></trkpt>
<trkpt lat="46.73691600" lon="7.05645296"><ele>673.35498</ele><time>2009-05-09T11:09:20Z</time></trkpt>
<trkpt lat="46.73651199" lon="7.05604392"><ele>673.234985</ele><time>2009-05-09T11:09:28Z</time></trkpt>
<trkpt lat="46.73646295" lon="7.05600595"><ele>673.23999</ele><time>2009-05-09T11:09:29Z</time></trkpt>
<trkpt lat="46.73602894" lon="7.05579397"><ele>671.10498</ele><time>2009-05-09T11:09:36Z</time></trkpt>
<trkpt lat="46.73562099" lon="7.05558392"><ele>667.710999</ele><time>2009-05-09T11:09:41Z</time></trkpt>
<trkpt lat="46.73535193" lon="7.05545199"><ele>665.789001</ele><time>2009-05-09T11:09:44Z</time></trkpt>
<trkpt lat="46.73526493" lon="7.05540095"><ele>665.020996</ele><time>2009-05-09T11:09:45Z</time></trkpt>
<trkpt lat="46.73497299" lon="7.05513792"><ele>663.232971</ele><time>2009-05-09T11:09:49Z</time></trkpt>
<trkpt lat="46.73491792" lon="7.05507900"><ele>662.411987</ele><time>2009-05-09T11:09:50Z</time></trkpt>
<trkpt lat="46.73479797" lon="7.05470692"><ele>660.783997</ele><time>2009-05-09T11:09:55Z</time></trkpt>
<trkpt lat="46.73478892" lon="7.05464498"><ele>660.304016</ele><time>2009-05-09T11:09:56Z</time></trkpt>
<trkpt lat="46.73472798" lon="7.05419999"><ele>657.91803</ele><time>2009-05-09T11:10:02Z</time></trkpt>
</trkseg></trk></gpx>